McKean County Weather on FaceBook
Current Metar reports for airports in our Region

Nearby METAR Reports

Metar reports are mainly used by pilots for information on what is happening at their destination during their pre-flight weather briefings and by meteorologists to assist in short term forecasts. A raw Metar is one of the most universal ways to communicate weather information in the world and are usually transmitted by airports, but some come from permanent sanctioned weather observatories.

Listed below are Metars from airports within 100 miles of our station here in Smethport Pa. The first one of course is the Bradford Regional Airport, then the Olean NY airport and so on. Each airport has it's own table to display it's data and at the bottom of the table is 'Raw' Metar for each airport. Most pilots and weather forecasters can look at the raw data and tell you what is up, but we use a script that handles all of the details for us.

KBFD - Bradford, Pennsylvania, USA
Distance from station: NW 7mi, 11km
Updated: Tue, 19-Feb-2019 2:53am EST
Clear
Clear
 Wind from W
Wind: W 5 mph , 7 km/h
Temperature: 7°F , -14°C
Wind Chill: -2°F , -19°C
Dew Point: 3°F , -16°C
Humidity: 85%
Barometer: 30.38 inHg , 1028.8 hPa
Clouds: Clear
Visibility: 9 miles , 14 km
2019/02/19 07:53 KBFD 190753Z AUTO 28004KT 9SM CLR M14/M16 A3038 RMK AO2 SLP326 T11441161
KOLE - Olean, New York, USA
Distance from station: NNE 37mi, 59km
Updated: Tue, 19-Feb-2019 3:15am EST
Clear
Clear
 Wind from WNW
Wind: WNW 3 mph , 6 km/h
Temperature: 5°F , -15°C
Dew Point: 5°F , -15°C
Humidity: 100%
Barometer: 30.38 inHg , 1028.8 hPa
Clouds: Clear
Visibility: 10 miles , 16 km
2019/02/19 08:15 KOLE 190815Z AUTO 30003KT 10SM CLR M15/M15 A3038 RMK AO2
 
KELZ - Wellsville, New York, USA
Distance from station: NE 40mi, 64km
Updated: Tue, 19-Feb-2019 2:56am EST
Light snow, Mist, Overcast
Light snow, Mist, Overcast
 Wind from WNW
Wind: WNW 10 mph , 17 km/h
Temperature: 7°F , -14°C
Wind Chill: -7°F , -22°C
Dew Point: 5°F , -15°C
Humidity: 92%
Barometer: 30.38 inHg , 1028.8 hPa
Summary: Light snow, Mist
Clouds: Overcast
Visibility: 6 miles , 10 km
Cloud details: Overcast 700 ft
2019/02/19 07:56 KELZ 190756Z AUTO 30009KT 6SM -SN BR OVC007 M14/M15 A3038 RMK AO2 SNB14 SLP330 P0000 T11391150 $
KDUJ - Du Bois, Pennsylvania, USA
Distance from station: SSW 42mi, 68km
Updated: Tue, 19-Feb-2019 3:12am EST
Partly Cloudy
Partly Cloudy
 Wind from W
Wind: W 5 mph , 7 km/h
Temperature: 10°F , -12°C
Wind Chill: 1°F , -17°C
Dew Point: 7°F , -14°C
Humidity: 85%
Barometer: 30.42 inHg , 1030.1 hPa
Clouds: Partly Cloudy
Visibility: 10 miles , 16 km
Cloud details: Partly Cloudy 900 ft
2019/02/19 08:12 KDUJ 190812Z AUTO 27004KT 10SM SCT009 M12/M14 A3042 RMK AO2 T11221139 $
 
KJHW - Jamestown, New York, USA
Distance from station: NW 46mi, 75km
Updated: Tue, 19-Feb-2019 2:56am EST
Clear
Clear
 Wind from NW
Wind: NW 8 mph , 13 km/h
Temperature: 5°F , -15°C
Wind Chill: -8°F , -22°C
Dew Point: 3°F , -16°C
Humidity: 92%
Barometer: 30.44 inHg , 1030.8 hPa
Clouds: Clear
Visibility: 10 miles , 16 km
2019/02/19 07:56 KJHW 190756Z AUTO 32007KT 10SM CLR M15/M16 A3044 RMK AO2 SLP349 T11501161 FZRANO
KFIG - Clearfield, Pennsylvania, USA
Distance from station: S 47mi, 75km
Updated: Tue, 19-Feb-2019 3:08am EST
Mostly Cloudy
Mostly Cloudy
 Wind from WSW
Wind: WSW 5 mph , 7 km/h
Temperature: 14°F , -10°C
Wind Chill: 6°F , -14°C
Dew Point: 10°F , -12°C
Humidity: 85%
Barometer: 30.45 inHg , 1031.2 hPa
Clouds: Mostly Cloudy
Visibility: 10 miles , 16 km
Cloud details: Mostly Cloudy 1600 ft
2019/02/19 08:08 KFIG 190808Z AUTO 25004KT 10SM BKN016 M10/M12 A3045 RMK AO2 T11001122
 
KDKK - Dunkirk, New York, USA
Distance from station: NW 66mi, 106km
Updated: Tue, 19-Feb-2019 2:53am EST
Clear
Clear
 Wind from SSW
Wind: SSW 5 mph , 7 km/h
Temperature: 3°F , -16°C
Wind Chill: -7°F , -22°C
Dew Point: -0°F , -18°C
Humidity: 85%
Barometer: 30.55 inHg , 1034.5 hPa
Clouds: Clear
Visibility: 10 miles , 16 km
2019/02/19 07:53 KDKK 190753Z AUTO 21004KT 10SM CLR M16/M18 A3055 RMK AO2 SLP360 I1000 T11611178
KUNV - State College, Pennsylvania, USA
Distance from station: SSE 71mi, 114km
Updated: Tue, 19-Feb-2019 3:15am EST
Clear
Clear
 Wind from WNW
Wind: WNW 5 mph , 7 km/h
Temperature: 18°F , -8°C
Wind Chill: 11°F , -12°C
Dew Point: 10°F , -12°C
Humidity: 73%
Barometer: 30.46 inHg , 1031.5 hPa
Clouds: Clear
Visibility: 10 miles , 16 km
2019/02/19 08:15 KUNV 190815Z AUTO 30004KT 10SM CLR M08/M12 A3046 RMK AO2 T10781123
 
KFKL - Franklin, Pennsylvania, USA
Distance from station: WSW 72mi, 116km
Updated: Tue, 19-Feb-2019 1:56am EST
NOT Current
Clear
Clear
 Wind from WNW
Wind: WNW 3 mph , 6 km/h
Temperature: 9°F , -13°C
Dew Point: 7°F , -14°C
Humidity: 92%
Barometer: 30.47 inHg , 1031.8 hPa
Clouds: Clear
Visibility: 10 miles , 16 km
2019/02/19 06:56 KFKL 190656Z AUTO 30003KT 10SM CLR M13/M14 A3047 RMK AO2 SLP347 T11331144 FZRANO
KDSV - Dansville, New York, USA
Distance from station: NE 73mi, 117km
Updated: Tue, 19-Feb-2019 2:54am EST
Mostly Cloudy
Mostly Cloudy
 Wind from N
Wind: N 3 mph , 6 km/h
Temperature: 9°F , -13°C
Dew Point: 3°F , -16°C
Humidity: 78%
Barometer: 30.51 inHg , 1033.2 hPa
Clouds: Mostly Cloudy
Visibility: 10 miles , 16 km
Cloud details: Mostly Cloudy 2700 ft
2019/02/19 07:54 KDSV 190754Z AUTO 36003KT 10SM BKN027 M13/M16 A3051 RMK AO2 SLP352 T11281161
 
KIDI - Indiana/Stewart, Pennsylvania, USA
Distance from station: SSW 81mi, 130km
Updated: Tue, 19-Feb-2019 3:15am EST
Clear
Clear
 Wind from calm
Wind: Calm
Temperature: 16°F , -9°C
Dew Point: 12°F , -11°C
Humidity: 86%
Barometer: 30.52 inHg , 1033.5 hPa
Clouds: Clear
Visibility: 10 miles , 16 km
2019/02/19 08:15 KIDI 190815Z AUTO 00000KT 10SM CLR M09/M11 A3052 RMK A01
KBUF - Buffalo/Cheektow, New York, USA
Distance from station: N 84mi, 136km
Updated: Tue, 19-Feb-2019 2:54am EST
Few Clouds
Few Clouds
 Wind from WSW
Wind: WSW 3 mph , 6 km/h
Temperature: 9°F , -13°C
Dew Point: 3°F , -16°C
Humidity: 78%
Barometer: 30.51 inHg , 1033.2 hPa
Clouds: Few Clouds
Visibility: 10 miles , 16 km
Cloud details: Few Clouds 2000 ft
2019/02/19 07:54 KBUF 190754Z 25003KT 10SM FEW020 M13/M16 A3051 RMK AO2 SLP348 T11331156
 
KGKJ - Meadville, Pennsylvania, USA
Distance from station: W 86mi, 138km
Updated: Tue, 19-Feb-2019 2:53am EST
Clear
Clear
 Wind from NNE
Wind: NNE 3 mph , 6 km/h
Temperature: 9°F , -13°C
Dew Point: 7°F , -14°C
Humidity: 92%
Barometer: 30.48 inHg , 1032.2 hPa
Clouds: Clear
Visibility: 10 miles , 16 km
2019/02/19 07:53 KGKJ 190753Z AUTO 03003KT 10SM CLR M13/M14 A3048 RMK AO2 SLP347 I1000 T11281144 TSNO
KERI - Erie, Pennsylvania, USA
Distance from station: WNW 87mi, 140km
Updated: Tue, 19-Feb-2019 2:51am EST
Clear
Clear
 Wind from SSE
Wind: SSE 3 mph , 6 km/h
Temperature: 9°F , -13°C
Dew Point: 3°F , -16°C
Humidity: 78%
Barometer: 30.55 inHg , 1034.5 hPa
Clouds: Clear
Visibility: 10 miles , 16 km
2019/02/19 07:51 KERI 190751Z AUTO 16003KT 10SM CLR M13/M16 A3055 RMK AO2 SLP360 T11331156 TSNO
 
KELM - Elmira, New York, USA
Distance from station: ENE 90mi, 145km
Updated: Tue, 19-Feb-2019 3:02am EST
Partly Cloudy
Partly Cloudy
 Wind from NNW
Wind: NNW 5 mph , 7 km/h
Temperature: 18°F , -8°C
Wind Chill: 11°F , -12°C
Dew Point: 7°F , -14°C
Humidity: 62%
Barometer: 30.46 inHg , 1031.5 hPa
Clouds: Partly Cloudy
Visibility: 10 miles , 16 km
Cloud details: Partly Cloudy 2300 ft
2019/02/19 08:02 KELM 190802Z AUTO 33004KT 10SM SCT023 M08/M14 A3046 RMK AO2 T10831139
KIPT - Williamsport, Pennsylvania, USA
Distance from station: ESE 91mi, 146km
Updated: Tue, 19-Feb-2019 2:54am EST
Clear
Clear
 Wind from NW
Wind: NW 5 mph , 7 km/h
Temperature: 21°F , -6°C
Wind Chill: 14°F , -10°C
Dew Point: 10°F , -12°C
Humidity: 63%
Barometer: 30.47 inHg , 1031.8 hPa
Clouds: Clear
Visibility: 10 miles , 16 km
2019/02/19 07:54 KIPT 190754Z AUTO 31004KT 10SM CLR M06/M12 A3047 RMK AO2 SLP327 T10611122
 
KBTP - Butler Co., Pennsylvania, USA
Distance from station: SW 98mi, 157km
Updated: Tue, 19-Feb-2019 2:56am EST
Clear
Clear
 Wind from calm
Wind: Calm
Temperature: 10°F , -12°C
Dew Point: 7°F , -14°C
Humidity: 85%
Barometer: 30.51 inHg , 1033.2 hPa
Clouds: Clear
Visibility: 10 miles , 16 km
2019/02/19 07:56 KBTP 190756Z AUTO 00000KT 10SM CLR M12/M14 A3051 RMK AO2 SLP361 T11171139 FZRANO
KAOO - Altoona, Pennsylvania, USA
Distance from station: S 99mi, 159km
Updated: Tue, 19-Feb-2019 2:53am EST
Clear
Clear
 Wind from NW
Wind: NW 17 mph , 28 km/h
Temperature: 19°F , -7°C
Wind Chill: 4°F , -16°C
Dew Point: 9°F , -13°C
Humidity: 63%
Barometer: 30.44 inHg , 1030.8 hPa
Clouds: Clear
Visibility: 10 miles , 16 km
2019/02/19 07:53 KAOO 190753Z AUTO 31015KT 10SM CLR M07/M13 A3044 RMK AO2 SLP332 T10721128
 
KPIT - Pittsburg, Pennsylvania, USA
Distance from station: SSW 126mi, 203km
Updated: Tue, 19-Feb-2019 2:51am EST
Partly Cloudy
Partly Cloudy
 Wind from NNW
Wind: NNW 5 mph , 7 km/h
Temperature: 16°F , -9°C
Wind Chill: 8°F , -13°C
Dew Point: 12°F , -11°C
Humidity: 86%
Barometer: 30.51 inHg , 1033.2 hPa
Clouds: Partly Cloudy
Visibility: 10 miles , 16 km
Cloud details: Few Clouds 2800 ft
Partly Cloudy 15000 ft
2019/02/19 07:51 KPIT 190751Z 33004KT 10SM FEW028 SCT150 M09/M11 A3051 RMK AO2 SLP359 T10891106
KCLE - Cleveland, Ohio, USA
Distance from station: WSW 160mi, 258km
Updated: Tue, 19-Feb-2019 2:51am EST
Mostly Cloudy
Mostly Cloudy
 Wind from calm
Wind: Calm
Temperature: 14°F , -10°C
Dew Point: 10°F , -12°C
Humidity: 85%
Barometer: 30.57 inHg , 1035.2 hPa
Clouds: Mostly Cloudy
Visibility: 10 miles , 16 km
Cloud details: Few Clouds 2600 ft
Mostly Cloudy 25000 ft
2019/02/19 07:51 KCLE 190751Z 00000KT 10SM FEW026 BKN250 M10/M12 A3057 RMK AO2 SLP365 I1000 T11001117 $